OPMET & Warnings

Home ✈︎ OPMET & Warnings

Warnings

Home ✈︎ Warnings

METAR (LATI)

METAR LATI 131020Z 33006KT 290V010 CAVOK 34/24 Q1010 NOSIG=

METAR (LAKU)

METAR LAKU 131020Z AUTO VRB03KT 9999 FEW250/// 35/16 Q1012=

TAF (LATI)

TAF LATI 130500Z 1306/1406 VRB05KT CAVOK TX38/1312Z TN23/1404Z TEMPO
1310/1317 33012KT=

TAF (LAKU)

TAF LAKU 130500Z 1306/1406 VRB05KT CAVOK TX34/1312Z TN23/1404Z
PROB40 1310/1316 -TSRA FEW030CB BKN060=

ADWRNG (LATI)

ADWRNG (LAKU)

LAKU AD WRNG 1 VALID 121130/121600
TEMP ABV 35°C FCST=